Portada
METAR-TAF:

METAR-TAF

Aeroports :

Rivas, Nicaragua

latitud: 11-25N, longitud: 085-50W, altitud: 53 m

Observació

L'informe es va fer fa 11 hores i 4 minuts, a les 23:00 UTC
Vent 4 kt del Nord
Temperatura 26°C
Humitat 89%
Pressió 1009 hPa
Visibilitat 10 km o més
Escasses núvols a una alçada de 1200 ft, Cumulonimbus.

METAR: MNRS 152300Z 36004KT 9999 FEW012CB 26/24 Q1009 CB N NE E SE S NW

Hora: 04:04 (10:04 UTC)


TAF: manca

Observacions i pronòstics meteorològics de més de 4000 aeroports (METAR i TAF).

Les estacions disponibles són els punts grocs i vermells al mapa.

Posi el ratolí al punt desitjat per veure el nom de l'estació.

Feu clic per veure les observacions i els pronòstics meteorològics.

Per canviar el mapa: feu clic els botons verds amb una creu de color negre per apropar; al botó verd amb un guió per allunyar la imatge; o en les fletxes verdes per a mapes adjacents.


METAR-TAF: